Latest Weather Observations for The Monument

IDQ60801

Issued at 10:32 am EST Tuesday 14 July 2020 (issued every 10 minutes, with the page automatically refreshed every 10 minutes)

About weather observations | Map of weather stations | Latest weather observations for QLD | Other Formats
Station Details ID: 037034 Name: THE MONUMENT AIRPORT Lat: -21.81 Lon: 139.93 Height: 288.4 m
Data from the previous 72 hours. | See also: Recent months at The Monument
Date/Time
EST
Temp
°C
App
Temp
°C
Dew
Point
°C
Rel
Hum
%
Delta-T
°C
Wind Press
QNH
hPa
Press
MSL
hPa
Rain since
9am
mm
Dir  Spd
km/h
Gust
km/h
Spd
kts
Gust
kts
14/10:30am 14.3 7.0 -0.2 37 6.1 ESE 28 41 15 22 1024.6 1024.2 0.0
14/10:00am 12.6 5.3 -0.3 41 5.3 ESE 28 39 15 21 1024.8 1024.4 0.0
14/09:30am 11.3 5.1 -0.5 44 4.8 ESE 22 32 12 17 1024.9 1024.5 0.0
14/09:00am 9.9 3.6 -0.9 47 4.3 ESE 22 28 12 15 1024.5 1024.1 0.0
14/08:30am 8.8 3.4 -1.0 50 3.9 SE 17 24 9 13 1024.2 1023.8 0.0
14/08:00am 6.9 2.3 -1.3 56 3.1 SE 13 17 7 9 1023.8 1023.5 0.0
14/07:30am 5.1 0.5 -1.3 63 2.4 SE 13 15 7 8 1023.6 1023.3 0.0
14/07:00am 4.5 0.5 -2.1 62 2.4 SSE 9 11 5 6 1023.4 1023.1 0.0
14/06:30am 4.9 0.9 -2.2 60 2.6 SSE 9 13 5 7 1023.2 1022.8 0.0
14/06:00am 5.8 1.1 -1.6 59 2.8 SSE 13 15 7 8 1022.7 1022.3 0.0
14/05:30am 5.5 1.2 -1.4 61 2.6 SSE 11 13 6 7 1022.5 1022.1 0.0
14/05:00am 5.0 1.0 -1.9 61 2.5 SE 9 11 5 6 1022.6 1022.2 0.0
14/04:30am 5.6 2.0 -2.0 58 2.8 SE 7 9 4 5 1022.8 1022.4 0.0
14/04:00am 6.9 2.3 -1.3 56 3.1 ESE 13 17 7 9 1022.8 1022.4 0.0
14/03:30am 7.3 3.1 -1.1 55 3.3 ESE 11 13 6 7 1022.8 1022.4 0.0
14/03:00am 7.7 3.5 -1.0 54 3.4 SE 11 13 6 7 1022.6 1022.2 0.0
14/02:30am 8.6 3.6 -0.9 51 3.7 SE 15 17 8 9 1023.0 1022.6 0.0
14/02:00am 7.9 3.3 -1.1 53 3.5 SE 13 15 7 8 1023.0 1022.6 0.0
14/01:30am 8.6 4.4 -1.2 50 3.8 SSE 11 17 6 9 1023.3 1023.0 0.0
14/01:00am 9.1 4.5 -1.3 48 4.1 SSE 13 15 7 8 1023.3 1023.0 0.0
14/12:30am 9.8 5.2 -1.3 46 4.4 SSE 13 17 7 9 1023.4 1023.1 0.0
14/12:00am 10.7 5.3 -1.4 43 4.8 SSE 17 24 9 13 1023.5 1023.2 0.0
 
Date/Time
EST
Temp
°C
App
Temp
°C
Dew
Point
°C
Rel
Hum
%
Delta-T
°C
Wind Press
QNH
hPa
Press
MSL
hPa
Rain since
9am
mm
Dir  Spd
km/h
Gust
km/h
Spd
kts
Gust
kts
13/11:30pm 11.2 5.8 -1.2 42 5.0 SSE 17 22 9 12 1023.7 1023.4 0.0
13/11:00pm 11.1 6.1 -1.3 42 4.9 SSE 15 19 8 10 1023.8 1023.5 0.0
13/10:30pm 11.6 6.6 -1.2 41 5.2 SSE 15 19 8 10 1023.7 1023.4 0.0
13/10:00pm 12.0 7.0 -1.5 39 5.4 SSE 15 19 8 10 1023.7 1023.4 0.0
13/09:30pm 12.5 7.5 -1.4 38 5.6 SSE 15 20 8 11 1023.5 1023.2 0.0
13/09:00pm 12.8 7.4 -1.5 37 5.8 SSE 17 20 9 11 1023.4 1023.1 0.0
13/08:30pm 13.3 8.2 -1.8 35 6.1 SSE 15 19 8 10 1023.4 1023.1 0.0
13/08:00pm 13.7 8.6 -2.3 33 6.4 SSE 15 20 8 11 1023.2 1022.8 0.0
13/07:30pm 14.2 9.1 -2.2 32 6.7 SSE 15 19 8 10 1023.1 1022.7 0.0
13/07:00pm 15.1 9.6 -2.3 30 7.1 SSE 17 22 9 12 1022.7 1022.3 0.0
13/06:30pm 15.8 10.2 -2.6 28 7.5 SSE 17 24 9 13 1022.3 1021.9 0.0
13/06:00pm 16.8 10.7 -2.3 27 7.9 SSE 20 32 11 17 1022.1 1021.7 0.0
13/05:30pm 17.7 10.8 -2.5 25 8.4 SSE 24 33 13 18 1022.0 1021.6 0.0
13/05:00pm 18.4 12.2 -3.1 23 8.9 SSE 20 33 11 18 1021.9 1021.5 0.0
13/04:30pm 18.5 11.6 -2.4 24 8.8 SSE 24 32 13 17 1021.7 1021.3 0.0
13/04:00pm 18.9 11.9 -3.9 21 9.3 SSE 24 35 13 19 1021.7 1021.3 0.0
13/03:30pm 18.9 11.9 -3.3 22 9.2 SSE 24 35 13 19 1021.8 1021.4 0.0
13/03:00pm 19.0 12.0 -3.2 22 9.2 SSE 24 37 13 20 1021.9 1021.5 0.0
13/02:30pm 19.1 11.7 -3.7 21 9.4 SSE 26 35 14 19 1021.8 1021.4 0.0
13/02:00pm 18.2 11.2 -3.2 23 8.8 S 24 33 13 18 1022.3 1021.9 0.0
13/01:30pm 18.1 12.0 -2.2 25 8.6 SSE 20 35 11 19 1022.6 1022.2 0.0
13/01:00pm 17.4 11.4 -1.8 27 8.1 SSE 20 33 11 18 1023.1 1022.7 0.0
13/12:30pm 16.6 10.3 -1.0 30 7.5 SE 22 30 12 16 1023.6 1023.3 0.0
13/12:00pm 16.1 9.4 -1.0 31 7.2 SE 24 33 13 18 1023.8 1023.5 0.0
13/11:30am 15.2 9.0 -0.1 35 6.6 SSE 22 32 12 17 1024.6 1024.2 0.0
13/11:00am 14.5 9.5 1.1 40 5.8 SE 17 26 9 14 1025.3 1024.9 0.0
13/10:30am 13.5 8.1 1.5 44 5.2 SSE 19 28 10 15 1025.7 1025.3 0.0
13/10:00am 12.3 6.8 1.6 48 4.6 SSE 20 28 11 15 1026.0 1025.6 0.0
13/09:30am 11.0 5.6 1.5 52 4.1 SSE 19 24 10 13 1025.7 1025.3 0.0
13/09:00am 9.9 5.3 1.5 56 3.5 SSE 15 22 8 12 1025.4 1025.0 0.0
13/08:30am 7.7 4.4 0.2 59 3.0 SSE 7 13 4 7 1024.8 1024.4 0.0
13/08:00am 5.2 1.8 -0.8 65 2.3 S 7 9 4 5 1024.6 1024.2 0.0
13/07:30am 4.0 0.1 -1.4 68 2.0 SSW 9 11 5 6 1024.1 1023.7 0.0
13/07:00am 4.4 0.2 -1.2 67 2.1 SSW 11 13 6 7 1023.8 1023.5 0.0
13/06:30am 4.7 0.5 -1.1 66 2.2 S 11 13 6 7 1023.7 1023.4 0.0
13/06:00am 5.1 0.9 -1.1 64 2.3 S 11 15 6 8 1023.4 1023.1 0.0
13/05:30am 5.9 1.7 -0.8 62 2.6 S 11 15 6 8 1023.1 1022.7 0.0
13/05:00am 6.4 2.2 -0.6 61 2.7 SSE 11 17 6 9 1023.0 1022.6 0.0
13/04:30am 6.1 2.3 -0.6 62 2.6 SSE 9 11 5 6 1022.6 1022.2 0.0
13/04:00am 6.5 2.3 -0.9 59 2.8 SSE 11 15 6 8 1022.5 1022.1 0.0
13/03:30am 7.3 2.4 -0.4 58 3.0 SSE 15 19 8 10 1022.5 1022.1 0.0
13/03:00am 7.3 2.8 -0.6 57 3.1 SSE 13 19 7 10 1022.5 1022.1 0.0
13/02:30am 6.6 2.3 -1.8 55 3.2 SSE 11 13 6 7 1022.5 1022.1 0.0
13/02:00am 7.0 2.7 -1.7 54 3.3 SSE 11 11 6 6 1022.8 1022.4 0.0
13/01:30am 7.4 3.5 -1.8 52 3.5 SSE 9 11 5 6 1022.9 1022.5 0.0
13/01:00am 8.3 4.4 -1.8 49 3.9 SSE 9 13 5 7 1022.9 1022.5 0.0
13/12:30am 9.3 4.6 -1.7 46 4.3 S 13 15 7 8 1022.9 1022.5 0.0
13/12:00am 10.3 5.7 -1.4 44 4.6 S 13 20 7 11 1022.8 1022.4 0.0
 
Date/Time
EST
Temp
°C
App
Temp
°C
Dew
Point
°C
Rel
Hum
%
Delta-T
°C
Wind Press
QNH
hPa
Press
MSL
hPa
Rain since
9am
mm
Dir  Spd
km/h
Gust
km/h
Spd
kts
Gust
kts
12/11:30pm 10.2 5.5 -2.1 42 4.8 S 13 17 7 9 1023.0 1022.6 0.0
12/11:00pm 10.6 5.8 -2.4 40 5.0 S 13 15 7 8 1023.0 1022.6 0.0
12/10:30pm 11.6 6.5 -2.2 38 5.5 SSW 15 20 8 11 1023.1 1022.7 0.0
12/10:00pm 12.1 7.0 -2.1 37 5.6 SSW 15 19 8 10 1022.9 1022.5 0.0
12/09:30pm 11.6 7.4 -1.2 41 5.2 SSW 11 17 6 9 1022.6 1022.2 0.0
12/09:00pm 12.1 7.5 -1.4 39 5.4 SSW 13 15 7 8 1022.3 1021.9 0.0
12/08:30pm 12.8 8.2 -1.1 38 5.7 SSW 13 19 7 10 1021.9 1021.5 0.0
12/08:00pm 13.5 8.8 -1.6 35 6.1 SSW 13 15 7 8 1021.4 1021.0 0.0
12/07:30pm 14.5 9.8 -1.6 33 6.6 S 13 17 7 9 1021.1 1020.7 0.0
12/07:00pm 15.4 10.3 -1.6 31 7.1 SSW 15 20 8 11 1020.7 1020.3 0.0
12/06:30pm 16.2 10.9 -0.9 31 7.3 SSW 17 24 9 13 1020.2 1019.8 0.0
12/06:00pm 17.2 11.2 -1.4 28 7.9 S 20 30 11 16 1019.9 1019.5 0.0
12/05:30pm 18.1 11.8 -1.2 27 8.3 SSW 22 33 12 18 1019.6 1019.2 0.0
12/05:00pm 18.6 12.3 -1.3 26 8.6 SSW 22 35 12 19 1019.5 1019.1 0.0
12/04:30pm 18.8 12.4 -1.6 25 8.8 SSW 22 35 12 19 1019.6 1019.2 0.0
12/04:00pm 19.2 12.4 -1.8 24 9.0 SSW 24 35 13 19 1019.7 1019.3 0.0
12/03:30pm 19.6 12.8 -1.5 24 9.2 SSW 24 35 13 19 1019.8 1019.4 0.0
12/03:00pm 19.6 12.8 -1.5 24 9.1 S 24 33 13 18 1020.0 1019.6 0.0
12/02:30pm 19.5 13.6 -1.0 25 9.0 S 20 28 11 15 1020.2 1019.8 0.0
12/02:00pm 18.5 12.2 -1.3 26 8.5 SSW 22 35 12 19 1020.6 1020.2 0.0
12/01:30pm 18.9 13.0 -0.5 27 8.5 S 20 35 11 19 1021.1 1020.7 0.0
12/01:00pm 17.9 12.0 -0.8 28 8.1 S 20 33 11 18 1021.7 1021.3 0.0
12/12:30pm 18.0 11.8 -0.3 29 8.0 S 22 32 12 17 1022.2 1021.8 0.0
12/12:00pm 17.2 11.5 -1.0 29 7.8 SSE 19 30 10 16 1022.7 1022.3 0.0
12/11:30am 16.7 10.5 -0.5 31 7.4 S 22 35 12 19 1023.1 1022.7 0.0
12/11:00am 15.9 9.0 0.1 34 6.8 S 26 35 14 19 1023.3 1023.0 0.0
12/10:30am 15.1 8.9 -0.2 35 6.5 SSE 22 32 12 17 1023.5 1023.2 0.0
12/10:00am 14.7 9.1 0.2 37 6.2 SSE 19 28 10 15 1023.5 1023.2 0.0
12/09:30am 12.7 6.8 -0.9 39 5.6 S 20 26 11 14 1023.4 1023.1 0.0
12/09:00am 11.9 7.0 -0.6 42 5.1 S 15 22 8 12 1023.3 1023.0 0.0
12/08:30am 9.9 6.0 -1.2 46 4.4 S 9 13 5 7 1022.8 1022.4 0.0
12/08:00am 8.4 5.0 -0.9 52 3.6 S 7 9 4 5 1022.4 1022.0 0.0
12/07:30am 7.2 3.3 -1.2 55 3.2 SSE 9 11 5 6 1022.2 1021.8 0.0
12/07:00am 7.0 3.1 -1.7 54 3.3 SSE 9 9 5 5 1022.0 1021.6 0.0
12/06:30am 7.8 3.5 -1.4 52 3.6 S 11 11 6 6 1021.6 1021.2 0.0
12/06:00am 8.4 4.2 -1.1 51 3.7 S 11 13 6 7 1021.4 1021.0 0.0
12/05:30am 9.3 4.7 -0.8 49 4.0 S 13 17 7 9 1021.2 1020.8 0.0
12/05:00am 10.0 5.1 -0.8 47 4.3 S 15 19 8 10 1021.1 1020.7 0.0
12/04:30am 10.5 5.6 -0.3 47 4.4 S 15 24 8 13 1021.1 1020.7 0.0
12/04:00am 11.1 5.9 0.2 47 4.5 S 17 24 9 13 1021.0 1020.6 0.0
12/03:30am 11.7 6.6 0.5 46 4.7 S 17 24 9 13 1020.8 1020.4 0.0
12/03:00am 11.7 8.2 1.1 48 4.5 S 9 13 5 7 1020.6 1020.2 0.0
12/02:30am 12.9 7.5 1.3 45 5.0 S 19 28 10 15 1020.6 1020.2 0.0
12/02:00am 13.3 8.7 1.3 44 5.2 S 15 20 8 11 1020.4 1020.0 0.0
12/01:30am 14.3 9.0 1.6 42 5.6 S 19 26 10 14 1020.4 1020.0 0.0
12/01:00am 14.7 9.3 1.3 40 5.9 S 19 28 10 15 1020.1 1019.7 0.0
12/12:30am 14.7 9.6 0.5 38 6.1 S 17 26 9 14 1020.1 1019.7 0.0
12/12:00am 15.1 9.6 0.5 37 6.3 S 19 24 10 13 1020.4 1020.0 0.0
 
Date/Time
EST
Temp
°C
App
Temp
°C
Dew
Point
°C
Rel
Hum
%
Delta-T
°C
Wind Press
QNH
hPa
Press
MSL
hPa
Rain since
9am
mm
Dir  Spd
km/h
Gust
km/h
Spd
kts
Gust
kts
11/11:30pm 15.7 10.1 -0.1 34 6.8 S 19 24 10 13 1020.2 1019.8 0.0
11/11:00pm 16.3 11.1 0.0 33 7.1 S 17 24 9 13 1020.2 1019.8 0.0
11/10:30pm 17.0 11.2 0.2 32 7.4 S 20 28 11 15 1020.2 1019.8 0.0
11/10:00pm 17.3 12.3 1.3 34 7.2 S 17 20 9 11 1020.1 1019.7 0.0
11/09:30pm 16.7 13.1 0.4 33 7.2 S 9 13 5 7 1019.8 1019.4 0.0
11/09:00pm 17.7 13.7 0.4 31 7.6 S 11 13 6 7 1019.6 1019.2 0.0
11/08:30pm 18.6 14.9 0.2 29 8.2 SSE 9 11 5 6 1019.5 1019.1 0.0
11/08:00pm 19.3 15.3 0.8 29 8.4 SSE 11 15 6 8 1019.3 1018.9 0.0
11/07:30pm 20.1 15.7 0.5 27 8.9 S 13 19 7 10 1019.1 1018.7 0.0
11/07:00pm 20.7 15.9 0.5 26 9.2 S 15 24 8 13 1018.7 1018.3 0.0
11/06:30pm 21.8 16.2 0.9 25 9.7 S 20 26 11 14 1018.5 1018.1 0.0
11/06:00pm 22.5 16.8 0.4 23 10.2 S 20 28 11 15 1018.3 1017.9 0.0
11/05:30pm 23.4 17.2 -0.1 21 10.8 S 22 32 12 17 1018.0 1017.6 0.0
11/05:00pm 24.3 17.7 -0.1 20 11.3 S 24 35 13 19 1017.8 1017.4 0.0
11/04:30pm 25.3 18.7 -0.7 18 12.0 S 24 35 13 19 1017.5 1017.1 0.0
11/04:00pm 25.7 19.4 -1.2 17 12.3 S 22 33 12 18 1017.6 1017.2 0.0
11/03:30pm 25.5 18.7 -2.1 16 12.4 SSE 24 33 13 18 1017.6 1017.2 0.0
11/03:00pm 25.6 19.6 -1.2 17 12.3 SSE 20 32 11 17 1017.8 1017.4 0.0
11/02:30pm 25.2 19.4 0.0 19 11.8 S 20 32 11 17 1018.0 1017.6 0.0
11/02:00pm 24.8 18.3 0.3 20 11.5 SSE 24 35 13 19 1018.3 1017.9 0.0
11/01:30pm 25.0 18.9 0.5 20 11.5 SSE 22 32 12 17 1018.7 1018.3 0.0
11/01:00pm 24.4 18.9 4.2 27 10.1 S 22 32 12 17 1019.3 1018.9 0.0
11/12:30pm 23.8 19.2 5.7 31 9.3 SSE 19 30 10 16 1019.9 1019.5 0.0
11/12:00pm 22.9 18.1 4.4 30 9.2 SSE 19 30 10 16 1020.2 1019.8 0.0
11/11:30am 22.1 16.6 5.9 35 8.3 S 24 33 13 18 1020.6 1020.2 0.0
11/11:00am 21.5 16.6 7.0 39 7.5 S 22 33 12 18 1020.7 1020.3 0.0

Other formats

Comma delimited format used in spreadsheet applications
http://www.bom.gov.au/fwo/IDQ60801/IDQ60801.94336.axf

JavaScript Object Notation format (JSON) in row-major order
http://www.bom.gov.au/fwo/IDQ60801/IDQ60801.94336.json

Data quality

Most of these data are generated automatically and are frequently updated. Quality checks on data are not normally performed. It is possible for incorrect values to appear. Refer to information at About Latest Weather Observations and please check the disclaimer before using these data.